sensor_id;sensor_type;location;lat;lon;timestamp;temperature;humidity
14934;DHT22;7560;51.364;12.384;2022-11-15T00:00:58;6.00;99.90
14934;DHT22;7560;51.364;12.384;2022-11-15T00:06:04;6.10;99.90
14934;DHT22;7560;51.364;12.384;2022-11-15T00:11:05;6.20;99.90
14934;DHT22;7560;51.364;12.384;2022-11-15T00:16:08;6.20;99.90
14934;DHT22;7560;51.364;12.384;2022-11-15T00:21:12;6.30;99.90
14934;DHT22;7560;51.364;12.384;2022-11-15T00:26:15;6.30;99.90
14934;DHT22;7560;51.364;12.384;2022-11-15T00:31:17;6.40;99.90
14934;DHT22;7560;51.364;12.384;2022-11-15T00:36:18;6.40;99.90
14934;DHT22;7560;51.364;12.384;2022-11-15T00:41:20;6.40;99.90
14934;DHT22;7560;51.364;12.384;2022-11-15T00:46:22;6.50;99.90
14934;DHT22;7560;51.364;12.384;2022-11-15T00:51:23;6.60;99.90
14934;DHT22;7560;51.364;12.384;2022-11-15T00:56:25;6.90;99.90
14934;DHT22;7560;51.364;12.384;2022-11-15T01:01:27;7.10;99.90
14934;DHT22;7560;51.364;12.384;2022-11-15T01:06:29;7.20;99.90
14934;DHT22;7560;51.364;12.384;2022-11-15T01:11:31;7.20;99.90
14934;DHT22;7560;51.364;12.384;2022-11-15T01:16:32;7.20;99.90
14934;DHT22;7560;51.364;12.384;2022-11-15T01:21:34;7.30;99.90
14934;DHT22;7560;51.364;12.384;2022-11-15T01:26:36;7.20;99.90
14934;DHT22;7560;51.364;12.384;2022-11-15T01:31:38;7.30;99.90
14934;DHT22;7560;51.364;12.384;2022-11-15T01:36:39;7.20;99.90
14934;DHT22;7560;51.364;12.384;2022-11-15T01:41:41;7.20;99.90
14934;DHT22;7560;51.364;12.384;2022-11-15T01:46:46;7.20;99.90
14934;DHT22;7560;51.364;12.384;2022-11-15T01:51:49;7.10;99.90
14934;DHT22;7560;51.364;12.384;2022-11-15T01:56:54;7.10;99.90
14934;DHT22;7560;51.364;12.384;2022-11-15T02:01:57;7.20;99.90
14934;DHT22;7560;51.364;12.384;2022-11-15T02:06:59;7.40;99.90
14934;DHT22;7560;51.364;12.384;2022-11-15T02:12:03;7.20;99.90
14934;DHT22;7560;51.364;12.384;2022-11-15T02:33:57;7.40;99.90
14934;DHT22;7560;51.364;12.384;2022-11-15T02:39:10;7.50;99.90
14934;DHT22;7560;51.364;12.384;2022-11-15T02:44:22;7.60;99.90
14934;DHT22;7560;51.364;12.384;2022-11-15T02:49:28;7.70;99.90
14934;DHT22;7560;51.364;12.384;2022-11-15T02:54:33;7.70;99.90
14934;DHT22;7560;51.364;12.384;2022-11-15T03:00:19;7.60;99.90
14934;DHT22;7560;51.364;12.384;2022-11-15T03:11:11;7.70;99.90
14934;DHT22;7560;51.364;12.384;2022-11-15T03:21:37;7.60;99.90
14934;DHT22;7560;51.364;12.384;2022-11-15T03:26:41;7.60;99.90
14934;DHT22;7560;51.364;12.384;2022-11-15T03:31:49;7.60;99.90
14934;DHT22;7560;51.364;12.384;2022-11-15T03:36:53;7.60;99.90
14934;DHT22;7560;51.364;12.384;2022-11-15T03:42:27;7.60;99.90
14934;DHT22;7560;51.364;12.384;2022-11-15T03:47:36;7.60;99.90
14934;DHT22;7560;51.364;12.384;2022-11-15T03:52:40;7.60;99.90
14934;DHT22;7560;51.364;12.384;2022-11-15T03:57:43;7.60;99.90
14934;DHT22;7560;51.364;12.384;2022-11-15T04:02:44;7.60;99.90
14934;DHT22;7560;51.364;12.384;2022-11-15T04:07:46;7.50;99.90
14934;DHT22;7560;51.364;12.384;2022-11-15T04:12:48;7.50;99.90
14934;DHT22;7560;51.364;12.384;2022-11-15T04:17:52;7.50;99.90
14934;DHT22;7560;51.364;12.384;2022-11-15T04:22:55;7.50;99.90
14934;DHT22;7560;51.364;12.384;2022-11-15T04:28:16;7.40;99.90
14934;DHT22;7560;51.364;12.384;2022-11-15T04:33:18;7.40;99.90
14934;DHT22;7560;51.364;12.384;2022-11-15T04:38:20;7.40;99.90
14934;DHT22;7560;51.364;12.384;2022-11-15T04:43:22;7.40;99.90
14934;DHT22;7560;51.364;12.384;2022-11-15T04:48:24;7.40;99.90
14934;DHT22;7560;51.364;12.384;2022-11-15T04:53:25;7.20;99.90
14934;DHT22;7560;51.364;12.384;2022-11-15T04:58:27;7.20;99.90
14934;DHT22;7560;51.364;12.384;2022-11-15T05:03:29;7.10;99.90
14934;DHT22;7560;51.364;12.384;2022-11-15T05:08:49;7.20;99.90
14934;DHT22;7560;51.364;12.384;2022-11-15T05:13:51;7.30;99.90
14934;DHT22;7560;51.364;12.384;2022-11-15T05:18:53;7.30;99.90
14934;DHT22;7560;51.364;12.384;2022-11-15T05:23:55;7.30;99.90
14934;DHT22;7560;51.364;12.384;2022-11-15T05:28:58;7.20;99.90
14934;DHT22;7560;51.364;12.384;2022-11-15T05:34:01;7.30;99.90
14934;DHT22;7560;51.364;12.384;2022-11-15T05:39:05;7.30;99.90
14934;DHT22;7560;51.364;12.384;2022-11-15T05:44:11;7.30;99.90
14934;DHT22;7560;51.364;12.384;2022-11-15T05:49:17;7.40;99.90
14934;DHT22;7560;51.364;12.384;2022-11-15T05:54:21;7.40;99.90
14934;DHT22;7560;51.364;12.384;2022-11-15T05:59:24;7.40;99.90
14934;DHT22;7560;51.364;12.384;2022-11-15T06:04:26;7.40;99.90
14934;DHT22;7560;51.364;12.384;2022-11-15T06:09:27;7.40;99.90
14934;DHT22;7560;51.364;12.384;2022-11-15T06:14:29;7.40;99.90
14934;DHT22;7560;51.364;12.384;2022-11-15T06:19:31;7.50;99.90
14934;DHT22;7560;51.364;12.384;2022-11-15T06:24:34;7.50;99.90
14934;DHT22;7560;51.364;12.384;2022-11-15T06:29:36;7.50;99.90
14934;DHT22;7560;51.364;12.384;2022-11-15T06:34:37;7.40;99.90
14934;DHT22;7560;51.364;12.384;2022-11-15T06:39:39;7.40;99.90
14934;DHT22;7560;51.364;12.384;2022-11-15T06:44:41;7.50;99.90
14934;DHT22;7560;51.364;12.384;2022-11-15T06:49:43;7.60;99.90
14934;DHT22;7560;51.364;12.384;2022-11-15T06:54:45;7.60;99.90
14934;DHT22;7560;51.364;12.384;2022-11-15T06:59:46;7.60;99.90
14934;DHT22;7560;51.364;12.384;2022-11-15T07:04:48;7.70;99.90
14934;DHT22;7560;51.364;12.384;2022-11-15T07:09:50;7.80;99.90
14934;DHT22;7560;51.364;12.384;2022-11-15T07:14:51;7.80;99.90
14934;DHT22;7560;51.364;12.384;2022-11-15T07:19:53;7.80;99.90
14934;DHT22;7560;51.364;12.384;2022-11-15T07:24:55;8.00;99.90
14934;DHT22;7560;51.364;12.384;2022-11-15T07:29:57;8.10;99.90
14934;DHT22;7560;51.364;12.384;2022-11-15T07:34:58;8.10;99.90
14934;DHT22;7560;51.364;12.384;2022-11-15T07:40:00;8.10;99.90
14934;DHT22;7560;51.364;12.384;2022-11-15T07:45:02;8.10;99.90
14934;DHT22;7560;51.364;12.384;2022-11-15T07:50:04;8.10;99.90
14934;DHT22;7560;51.364;12.384;2022-11-15T07:55:06;8.30;99.90
14934;DHT22;7560;51.364;12.384;2022-11-15T08:00:09;8.50;99.90
14934;DHT22;7560;51.364;12.384;2022-11-15T08:05:11;8.50;99.90
14934;DHT22;7560;51.364;12.384;2022-11-15T08:10:13;8.50;99.90
14934;DHT22;7560;51.364;12.384;2022-11-15T08:15:15;8.50;99.90
14934;DHT22;7560;51.364;12.384;2022-11-15T08:20:20;8.50;99.90
14934;DHT22;7560;51.364;12.384;2022-11-15T08:25:24;8.60;99.90
14934;DHT22;7560;51.364;12.384;2022-11-15T08:30:28;8.70;99.90
14934;DHT22;7560;51.364;12.384;2022-11-15T08:35:30;8.80;99.90
14934;DHT22;7560;51.364;12.384;2022-11-15T08:40:31;8.90;99.90
14934;DHT22;7560;51.364;12.384;2022-11-15T08:45:35;8.90;99.90
14934;DHT22;7560;51.364;12.384;2022-11-15T08:50:37;9.10;99.90
14934;DHT22;7560;51.364;12.384;2022-11-15T08:55:40;9.20;99.90
14934;DHT22;7560;51.364;12.384;2022-11-15T09:00:42;9.30;99.90
14934;DHT22;7560;51.364;12.384;2022-11-15T09:05:43;9.40;99.90
14934;DHT22;7560;51.364;12.384;2022-11-15T09:10:45;9.50;99.90
14934;DHT22;7560;51.364;12.384;2022-11-15T09:15:47;9.50;99.90
14934;DHT22;7560;51.364;12.384;2022-11-15T09:20:49;9.40;99.90
14934;DHT22;7560;51.364;12.384;2022-11-15T09:25:51;9.70;99.90
14934;DHT22;7560;51.364;12.384;2022-11-15T09:30:59;10.00;99.90
14934;DHT22;7560;51.364;12.384;2022-11-15T09:36:04;10.10;99.90
14934;DHT22;7560;51.364;12.384;2022-11-15T09:46:47;10.10;99.90
14934;DHT22;7560;51.364;12.384;2022-11-15T09:51:53;10.20;99.90
14934;DHT22;7560;51.364;12.384;2022-11-15T09:57:13;10.40;99.90
14934;DHT22;7560;51.364;12.384;2022-11-15T10:02:46;10.90;99.90
14934;DHT22;7560;51.364;12.384;2022-11-15T10:13:33;11.20;99.90
14934;DHT22;7560;51.364;12.384;2022-11-15T10:24:06;11.40;99.90
14934;DHT22;7560;51.364;12.384;2022-11-15T10:29:11;11.70;99.90
14934;DHT22;7560;51.364;12.384;2022-11-15T10:34:16;12.10;99.90
14934;DHT22;7560;51.364;12.384;2022-11-15T10:39:18;12.00;99.90
14934;DHT22;7560;51.364;12.384;2022-11-15T10:54:29;11.80;99.90
14934;DHT22;7560;51.364;12.384;2022-11-15T10:59:33;12.20;99.90
14934;DHT22;7560;51.364;12.384;2022-11-15T11:04:50;12.10;99.90
14934;DHT22;7560;51.364;12.384;2022-11-15T11:15:12;12.30;99.90
14934;DHT22;7560;51.364;12.384;2022-11-15T11:20:22;12.20;99.90
14934;DHT22;7560;51.364;12.384;2022-11-15T11:25:41;12.10;99.90
14934;DHT22;7560;51.364;12.384;2022-11-15T11:41:55;12.90;99.90
14934;DHT22;7560;51.364;12.384;2022-11-15T11:47:15;12.80;99.90
14934;DHT22;7560;51.364;12.384;2022-11-15T11:53:01;13.00;99.90
14934;DHT22;7560;51.364;12.384;2022-11-15T11:58:19;13.20;99.90
14934;DHT22;7560;51.364;12.384;2022-11-15T12:03:30;13.30;99.90
14934;DHT22;7560;51.364;12.384;2022-11-15T12:08:56;13.30;99.90
14934;DHT22;7560;51.364;12.384;2022-11-15T12:14:01;13.00;99.90
14934;DHT22;7560;51.364;12.384;2022-11-15T12:19:04;13.10;99.90
14934;DHT22;7560;51.364;12.384;2022-11-15T12:24:13;13.40;99.90
14934;DHT22;7560;51.364;12.384;2022-11-15T12:29:41;13.60;99.90
14934;DHT22;7560;51.364;12.384;2022-11-15T12:34:46;13.50;99.90
14934;DHT22;7560;51.364;12.384;2022-11-15T13:01:07;13.60;99.90
14934;DHT22;7560;51.364;12.384;2022-11-15T13:06:39;13.50;99.90
14934;DHT22;7560;51.364;12.384;2022-11-15T13:11:48;13.70;99.90
14934;DHT22;7560;51.364;12.384;2022-11-15T13:17:00;13.60;99.90
14934;DHT22;7560;51.364;12.384;2022-11-15T13:22:08;13.80;99.90
14934;DHT22;7560;51.364;12.384;2022-11-15T13:27:36;14.00;99.90
14934;DHT22;7560;51.364;12.384;2022-11-15T13:32:38;14.10;99.90
14934;DHT22;7560;51.364;12.384;2022-11-15T13:37:40;14.20;99.90
14934;DHT22;7560;51.364;12.384;2022-11-15T13:42:43;14.20;99.90
14934;DHT22;7560;51.364;12.384;2022-11-15T13:47:55;14.40;99.90
14934;DHT22;7560;51.364;12.384;2022-11-15T13:53:00;14.40;99.90
14934;DHT22;7560;51.364;12.384;2022-11-15T13:58:04;14.50;99.90
14934;DHT22;7560;51.364;12.384;2022-11-15T14:03:18;14.40;99.90
14934;DHT22;7560;51.364;12.384;2022-11-15T14:13:30;14.20;99.90
14934;DHT22;7560;51.364;12.384;2022-11-15T14:18:52;14.10;99.90
14934;DHT22;7560;51.364;12.384;2022-11-15T14:24:14;13.80;99.90
14934;DHT22;7560;51.364;12.384;2022-11-15T14:34:24;13.30;99.90
14934;DHT22;7560;51.364;12.384;2022-11-15T14:39:26;13.10;99.90
14934;DHT22;7560;51.364;12.384;2022-11-15T14:44:28;12.90;99.90
14934;DHT22;7560;51.364;12.384;2022-11-15T14:49:29;12.90;99.90
14934;DHT22;7560;51.364;12.384;2022-11-15T14:54:31;12.80;99.90
14934;DHT22;7560;51.364;12.384;2022-11-15T14:59:33;12.50;99.90
14934;DHT22;7560;51.364;12.384;2022-11-15T15:04:34;12.30;99.90
14934;DHT22;7560;51.364;12.384;2022-11-15T15:09:36;12.10;99.90
14934;DHT22;7560;51.364;12.384;2022-11-15T15:14:38;12.00;99.90
14934;DHT22;7560;51.364;12.384;2022-11-15T15:19:39;12.00;99.90
14934;DHT22;7560;51.364;12.384;2022-11-15T15:24:45;11.80;99.90
14934;DHT22;7560;51.364;12.384;2022-11-15T15:29:47;11.70;99.90
14934;DHT22;7560;51.364;12.384;2022-11-15T15:34:48;11.60;99.90
14934;DHT22;7560;51.364;12.384;2022-11-15T15:39:52;11.40;99.90
14934;DHT22;7560;51.364;12.384;2022-11-15T15:44:54;11.30;99.90
14934;DHT22;7560;51.364;12.384;2022-11-15T15:49:55;11.30;99.90
14934;DHT22;7560;51.364;12.384;2022-11-15T15:54:57;11.10;99.90
14934;DHT22;7560;51.364;12.384;2022-11-15T15:59:59;10.90;99.90
14934;DHT22;7560;51.364;12.384;2022-11-15T16:05:00;10.60;99.90
14934;DHT22;7560;51.364;12.384;2022-11-15T16:10:26;10.60;99.90
14934;DHT22;7560;51.364;12.384;2022-11-15T16:15:30;10.40;99.90
14934;DHT22;7560;51.364;12.384;2022-11-15T16:20:39;10.30;99.90
14934;DHT22;7560;51.364;12.384;2022-11-15T16:25:48;10.20;99.90
14934;DHT22;7560;51.364;12.384;2022-11-15T16:31:07;10.10;99.90
14934;DHT22;7560;51.364;12.384;2022-11-15T16:36:23;10.10;99.90
14934;DHT22;7560;51.364;12.384;2022-11-15T16:41:31;10.10;99.90
14934;DHT22;7560;51.364;12.384;2022-11-15T16:46:33;10.10;99.90
14934;DHT22;7560;51.364;12.384;2022-11-15T16:51:35;10.10;99.90
14934;DHT22;7560;51.364;12.384;2022-11-15T16:56:38;10.00;99.90
14934;DHT22;7560;51.364;12.384;2022-11-15T17:01:41;9.80;99.90
14934;DHT22;7560;51.364;12.384;2022-11-15T17:06:52;9.70;99.90
14934;DHT22;7560;51.364;12.384;2022-11-15T17:11:54;9.60;99.90
14934;DHT22;7560;51.364;12.384;2022-11-15T17:16:56;9.50;99.90
14934;DHT22;7560;51.364;12.384;2022-11-15T17:21:57;9.40;99.90
14934;DHT22;7560;51.364;12.384;2022-11-15T17:26:59;9.40;99.90
14934;DHT22;7560;51.364;12.384;2022-11-15T17:32:01;9.40;99.90
14934;DHT22;7560;51.364;12.384;2022-11-15T17:37:02;9.30;99.90
14934;DHT22;7560;51.364;12.384;2022-11-15T17:42:04;9.40;99.90
14934;DHT22;7560;51.364;12.384;2022-11-15T17:47:06;9.20;99.90
14934;DHT22;7560;51.364;12.384;2022-11-15T17:52:08;9.30;99.90
14934;DHT22;7560;51.364;12.384;2022-11-15T17:57:10;9.20;99.90
14934;DHT22;7560;51.364;12.384;2022-11-15T18:02:12;9.10;99.90
14934;DHT22;7560;51.364;12.384;2022-11-15T18:07:14;9.10;99.90
14934;DHT22;7560;51.364;12.384;2022-11-15T18:12:16;8.90;99.90
14934;DHT22;7560;51.364;12.384;2022-11-15T18:17:17;9.00;99.90
14934;DHT22;7560;51.364;12.384;2022-11-15T18:22:19;9.00;99.90
14934;DHT22;7560;51.364;12.384;2022-11-15T18:27:22;8.90;99.90
14934;DHT22;7560;51.364;12.384;2022-11-15T18:32:24;8.90;99.90
14934;DHT22;7560;51.364;12.384;2022-11-15T18:37:26;8.90;99.90
14934;DHT22;7560;51.364;12.384;2022-11-15T18:42:29;9.10;99.90
14934;DHT22;7560;51.364;12.384;2022-11-15T18:47:33;9.20;99.90
14934;DHT22;7560;51.364;12.384;2022-11-15T18:52:35;9.20;99.90
14934;DHT22;7560;51.364;12.384;2022-11-15T18:57:36;9.30;99.90
14934;DHT22;7560;51.364;12.384;2022-11-15T19:02:38;9.40;99.90
14934;DHT22;7560;51.364;12.384;2022-11-15T19:07:40;9.40;99.90
14934;DHT22;7560;51.364;12.384;2022-11-15T19:12:42;9.40;99.90
14934;DHT22;7560;51.364;12.384;2022-11-15T19:17:43;9.50;99.90
14934;DHT22;7560;51.364;12.384;2022-11-15T19:22:45;9.40;99.90
14934;DHT22;7560;51.364;12.384;2022-11-15T19:27:47;9.40;99.90
14934;DHT22;7560;51.364;12.384;2022-11-15T19:32:49;9.40;99.90
14934;DHT22;7560;51.364;12.384;2022-11-15T19:37:50;9.30;99.90
14934;DHT22;7560;51.364;12.384;2022-11-15T19:42:52;9.30;99.90
14934;DHT22;7560;51.364;12.384;2022-11-15T19:47:54;9.30;99.90
14934;DHT22;7560;51.364;12.384;2022-11-15T19:52:55;9.40;99.90
14934;DHT22;7560;51.364;12.384;2022-11-15T19:57:58;9.40;99.90
14934;DHT22;7560;51.364;12.384;2022-11-15T20:03:00;9.40;99.90
14934;DHT22;7560;51.364;12.384;2022-11-15T20:08:02;9.40;99.90
14934;DHT22;7560;51.364;12.384;2022-11-15T20:13:03;9.20;99.90
14934;DHT22;7560;51.364;12.384;2022-11-15T20:18:05;9.10;99.90
14934;DHT22;7560;51.364;12.384;2022-11-15T20:23:07;9.00;99.90
14934;DHT22;7560;51.364;12.384;2022-11-15T20:28:08;9.10;99.90
14934;DHT22;7560;51.364;12.384;2022-11-15T20:33:14;9.10;99.90
14934;DHT22;7560;51.364;12.384;2022-11-15T20:38:17;9.10;99.90
14934;DHT22;7560;51.364;12.384;2022-11-15T20:43:20;9.10;99.90
14934;DHT22;7560;51.364;12.384;2022-11-15T20:48:22;9.10;99.90
14934;DHT22;7560;51.364;12.384;2022-11-15T20:53:24;9.10;99.90
14934;DHT22;7560;51.364;12.384;2022-11-15T20:58:32;9.00;99.90
14934;DHT22;7560;51.364;12.384;2022-11-15T21:03:34;8.80;99.90
14934;DHT22;7560;51.364;12.384;2022-11-15T21:08:36;8.70;99.90
14934;DHT22;7560;51.364;12.384;2022-11-15T21:14:01;8.50;99.90
14934;DHT22;7560;51.364;12.384;2022-11-15T21:19:10;8.40;99.90
14934;DHT22;7560;51.364;12.384;2022-11-15T21:24:12;8.40;99.90
14934;DHT22;7560;51.364;12.384;2022-11-15T21:29:14;8.30;99.90
14934;DHT22;7560;51.364;12.384;2022-11-15T21:34:18;8.30;99.90
14934;DHT22;7560;51.364;12.384;2022-11-15T21:39:20;8.20;99.90
14934;DHT22;7560;51.364;12.384;2022-11-15T21:44:22;8.20;99.90
14934;DHT22;7560;51.364;12.384;2022-11-15T21:49:23;8.10;99.90
14934;DHT22;7560;51.364;12.384;2022-11-15T21:54:25;8.00;99.90
14934;DHT22;7560;51.364;12.384;2022-11-15T21:59:27;7.90;99.90
14934;DHT22;7560;51.364;12.384;2022-11-15T22:04:29;7.90;99.90
14934;DHT22;7560;51.364;12.384;2022-11-15T22:09:30;7.80;99.90
14934;DHT22;7560;51.364;12.384;2022-11-15T22:14:32;7.80;99.90
14934;DHT22;7560;51.364;12.384;2022-11-15T22:19:34;7.70;99.90
14934;DHT22;7560;51.364;12.384;2022-11-15T22:24:52;7.70;99.90
14934;DHT22;7560;51.364;12.384;2022-11-15T22:29:54;7.70;99.90
14934;DHT22;7560;51.364;12.384;2022-11-15T22:34:56;7.70;99.90
14934;DHT22;7560;51.364;12.384;2022-11-15T22:39:58;7.70;99.90
14934;DHT22;7560;51.364;12.384;2022-11-15T22:45:00;7.80;99.90
14934;DHT22;7560;51.364;12.384;2022-11-15T22:50:02;7.90;99.90
14934;DHT22;7560;51.364;12.384;2022-11-15T22:55:06;7.90;99.90
14934;DHT22;7560;51.364;12.384;2022-11-15T23:00:13;8.00;99.90
14934;DHT22;7560;51.364;12.384;2022-11-15T23:05:16;8.00;99.90
14934;DHT22;7560;51.364;12.384;2022-11-15T23:10:18;8.00;99.90
14934;DHT22;7560;51.364;12.384;2022-11-15T23:15:38;8.00;99.90
14934;DHT22;7560;51.364;12.384;2022-11-15T23:21:05;8.00;99.90
14934;DHT22;7560;51.364;12.384;2022-11-15T23:26:07;8.00;99.90
14934;DHT22;7560;51.364;12.384;2022-11-15T23:31:10;7.90;99.90
14934;DHT22;7560;51.364;12.384;2022-11-15T23:36:30;7.90;99.90
14934;DHT22;7560;51.364;12.384;2022-11-15T23:41:32;7.80;99.90
14934;DHT22;7560;51.364;12.384;2022-11-15T23:46:33;7.70;99.90
14934;DHT22;7560;51.364;12.384;2022-11-15T23:51:35;7.50;99.90
14934;DHT22;7560;51.364;12.384;2022-11-15T23:56:37;7.40;99.90
